Time;durP1;ratioP1;P1;durP2;ratioP2;P2;SDS_P1;SDS_P2;PMS_P1;PMS_P2;Temp;Humidity;BMP_temperature;BMP_pressure;BME280_temperature;BME280_humidity;BME280_pressure;Samples;Min_cycle;Max_cycle;Signal;HPM_P1;HPM_P2
2022/08/01 00:00:17;;;;;;;;;;;;;;;17.04;100.00;100619.69;4951050;28;19923;-90
2022/08/01 00:02:50;;;;;;;;;;;;;;;17.09;100.00;100619.50;4953339;29;20378;-90
2022/08/01 00:05:22;;;;;;;;;;;;;;;17.14;100.00;100622.09;4951778;29;20158;-89
2022/08/01 00:07:55;;;;;;;;;;;;;;;17.10;100.00;100623.88;4953700;29;19926;-87
2022/08/01 00:10:30;;;;;;;;;;;;;;;17.12;100.00;100616.09;4937938;29;20006;-89
2022/08/01 00:13:02;;;;;;;;;;;;;;;17.12;100.00;100629.84;4949191;28;20138;-89
2022/08/01 00:15:36;;;;;;;;;;;;;;;17.14;100.00;100620.16;4952681;29;19933;-88
2022/08/01 00:18:09;;;;;;;;;;;;;;;17.14;100.00;100625.66;4951616;28;19922;-89
2022/08/01 00:20:41;;;;;;;;;;;;;;;17.17;100.00;100618.69;4951420;29;19929;-90
2022/08/01 00:23:14;;;;;;;;;;;;;;;17.23;100.00;100616.56;4937356;29;19929;-89
2022/08/01 00:25:44;;;;;;;;;;;;;;;17.13;100.00;100618.53;4937500;29;19923;-89
2022/08/01 00:28:17;;;;;;;;;;;;;;;17.14;100.00;100619.34;4953006;29;19929;-89
2022/08/01 00:30:49;;;;;;;;;;;;;;;17.14;100.00;100620.16;4933511;29;19934;-90
2022/08/01 00:33:22;;;;;;;;;;;;;;;17.23;100.00;100617.38;4953665;29;19922;-89
2022/08/01 00:35:55;;;;;;;;;;;;;;;17.26;100.00;100613.16;4952556;28;19930;-88
2022/08/01 00:38:28;;;;;;;;;;;;;;;17.24;100.00;100618.19;4953997;29;20303;-89
2022/08/01 00:40:57;;;;;;;;;;;;;;;17.22;100.00;100606.72;4953399;29;19922;-89
2022/08/01 00:43:25;;;;;;;;;;;;;;;17.27;100.00;100615.59;4953317;28;19926;-89
2022/08/01 00:45:58;;;;;;;;;;;;;;;17.22;100.00;100609.47;4954755;29;19922;-90
2022/08/01 00:48:26;;;;;;;;;;;;;;;17.21;100.00;100614.16;4950593;29;19931;-89
2022/08/01 00:50:59;;;;;;;;;;;;;;;17.22;100.00;100618.53;4933996;29;19933;-89
2022/08/01 00:53:32;;;;;;;;;;;;;;;17.12;100.00;100618.84;4936998;29;19930;-89
2022/08/01 00:56:02;;;;;;;;;;;;;;;17.19;100.00;100624.66;4952859;29;19933;-89
2022/08/01 00:58:35;;;;;;;;;;;;;;;17.13;100.00;100618.53;4946795;29;19930;-89
2022/08/01 01:01:08;;;;;;;;;;;;;;;17.16;100.00;100612.38;4933873;29;20368;-89
2022/08/01 01:03:40;;;;;;;;;;;;;;;17.12;100.00;100622.44;4949406;28;19934;-88
2022/08/01 01:06:25;;;;;;;;;;;;;;;17.20;100.00;100625.50;4951900;29;19922;-89
2022/08/01 01:08:56;;;;;;;;;;;;;;;17.20;100.00;100611.75;4945605;29;19923;-88
2022/08/01 01:11:34;;;;;;;;;;;;;;;17.19;100.00;100608.16;4954569;28;19933;-92
2022/08/01 01:14:05;;;;;;;;;;;;;;;17.27;100.00;100604.59;4946849;29;19929;-89
2022/08/01 01:16:34;;;;;;;;;;;;;;;17.22;100.00;100604.78;4952317;28;19929;-89
2022/08/01 01:19:09;;;;;;;;;;;;;;;17.23;100.00;100611.88;4948548;29;20145;-88
2022/08/01 01:21:55;;;;;;;;;;;;;;;17.19;100.00;100601.88;4942816;28;19930;-89
2022/08/01 01:24:32;;;;;;;;;;;;;;;17.28;100.00;100608.16;4933583;29;19930;-89
2022/08/01 01:27:10;;;;;;;;;;;;;;;17.28;100.00;100605.41;4936704;29;19937;-89
2022/08/01 01:29:47;;;;;;;;;;;;;;;17.24;100.00;100604.44;4943944;29;19929;-89
2022/08/01 01:32:17;;;;;;;;;;;;;;;17.24;100.00;100608.00;4948264;29;20409;-89
2022/08/01 01:34:51;;;;;;;;;;;;;;;17.19;100.00;100610.91;4936338;29;19923;-87
2022/08/01 01:37:25;;;;;;;;;;;;;;;17.18;100.00;100606.56;4951391;28;20379;-88
2022/08/01 01:39:59;;;;;;;;;;;;;;;17.23;100.00;100614.63;4952720;29;19922;-88
2022/08/01 01:42:27;;;;;;;;;;;;;;;17.24;100.00;100608.00;4936397;29;19999;-89
2022/08/01 01:45:04;;;;;;;;;;;;;;;17.23;100.00;100609.13;4935960;29;19933;-90
2022/08/01 01:47:32;;;;;;;;;;;;;;;17.20;100.00;100609.78;4952218;29;20368;-90
2022/08/01 01:50:00;;;;;;;;;;;;;;;17.17;100.00;100616.75;4933274;29;20291;-90
2022/08/01 01:52:34;;;;;;;;;;;;;;;17.16;100.00;100614.31;4932007;29;19922;-88
2022/08/01 01:55:06;;;;;;;;;;;;;;;17.14;100.00;100622.09;4936075;29;19929;-92
2022/08/01 01:57:37;;;;;;;;;;;;;;;17.08;100.00;100620.66;4951004;29;20291;-88
2022/08/01 02:00:13;;;;;;;;;;;;;;;17.16;100.00;100617.88;4953755;29;19926;-89
2022/08/01 02:02:41;;;;;;;;;;;;;;;17.18;100.00;100609.31;4933000;29;20304;-88
2022/08/01 02:05:15;;;;;;;;;;;;;;;17.24;100.00;100613.50;4948803;28;19923;-88
2022/08/01 02:07:49;;;;;;;;;;;;;;;17.16;100.00;100617.06;4939407;29;19942;-87
2022/08/01 02:10:23;;;;;;;;;;;;;;;17.12;100.00;100611.44;4938267;29;19922;-86
2022/08/01 02:12:51;;;;;;;;;;;;;;;17.11;100.00;100617.22;4942966;29;19922;-87
2022/08/01 02:15:27;;;;;;;;;;;;;;;17.05;100.00;100619.34;4933667;29;19955;-87
2022/08/01 02:17:55;;;;;;;;;;;;;;;17.10;100.00;100610.94;4949876;28;19934;-86
2022/08/01 02:20:23;;;;;;;;;;;;;;;17.12;100.00;100613.34;4952871;29;19922;-87
2022/08/01 02:22:58;;;;;;;;;;;;;;;17.11;100.00;100618.06;4935150;29;19931;-88
2022/08/01 02:25:30;;;;;;;;;;;;;;;17.05;100.00;100610.31;4949254;29;19930;-90
2022/08/01 02:28:05;;;;;;;;;;;;;;;17.06;100.00;100620.19;4948038;29;19945;-90
2022/08/01 02:30:42;;;;;;;;;;;;;;;17.02;100.00;100620.00;4928871;28;20295;-88
2022/08/01 02:33:15;;;;;;;;;;;;;;;17.02;100.00;100616.47;4947527;28;20280;-90
2022/08/01 02:35:51;;;;;;;;;;;;;;;17.03;100.00;100613.38;4951872;28;20008;-89
2022/08/01 02:38:21;;;;;;;;;;;;;;;17.10;100.00;100610.94;4945088;29;19926;-90
2022/08/01 02:40:51;;;;;;;;;;;;;;;17.02;100.00;100610.97;4953187;29;19930;-91
2022/08/01 02:43:25;;;;;;;;;;;;;;;17.08;100.00;100615.16;4951233;29;19923;-90
2022/08/01 02:45:56;;;;;;;;;;;;;;;17.07;100.00;100617.09;4949637;29;19922;-90
2022/08/01 02:48:31;;;;;;;;;;;;;;;17.08;100.00;100615.97;4939352;29;19922;-90
2022/08/01 02:51:04;;;;;;;;;;;;;;;17.07;100.00;100621.78;4946317;28;19922;-91
2022/08/01 02:53:36;;;;;;;;;;;;;;;17.03;100.00;100616.13;4951303;29;20375;-87
2022/08/01 02:56:05;;;;;;;;;;;;;;;17.05;100.00;100624.84;4936303;29;20368;-89
2022/08/01 02:58:34;;;;;;;;;;;;;;;17.05;100.00;100624.84;4948203;29;20140;-88
2022/08/01 03:01:05;;;;;;;;;;;;;;;17.05;100.00;100621.31;4951503;29;19922;-88
2022/08/01 03:03:35;;;;;;;;;;;;;;;16.98;100.00;100630.84;4946187;28;19929;-89
2022/08/01 03:06:03;;;;;;;;;;;;;;;17.05;100.00;100630.34;4947979;29;19933;-88
2022/08/01 03:08:38;;;;;;;;;;;;;;;16.99;100.00;100629.72;4943576;28;19926;-89
2022/08/01 03:11:13;;;;;;;;;;;;;;;16.99;100.00;100629.72;4942348;28;19934;-88
2022/08/01 03:13:42;;;;;;;;;;;;;;;17.00;100.00;100628.59;4931672;29;19927;-90
2022/08/01 03:16:17;;;;;;;;;;;;;;;17.02;100.00;100632.94;4932665;29;19937;-88
2022/08/01 03:18:52;;;;;;;;;;;;;;;17.03;100.00;100629.88;4929287;29;20304;-89
2022/08/01 03:21:26;;;;;;;;;;;;;;;17.00;100.00;100636.03;4932260;29;20378;-88
2022/08/01 03:23:57;;;;;;;;;;;;;;;17.02;100.00;100641.19;4932749;29;20321;-89
2022/08/01 03:26:32;;;;;;;;;;;;;;;17.01;100.00;100645.88;4952153;28;19926;-88
2022/08/01 03:29:07;;;;;;;;;;;;;;;17.00;100.00;100649.78;4954345;28;19922;-87
2022/08/01 03:31:37;;;;;;;;;;;;;;;17.03;100.00;100646.38;4949559;29;20360;-88
2022/08/01 03:34:06;;;;;;;;;;;;;;;17.03;100.00;100649.13;4935328;29;19926;-87
2022/08/01 03:36:38;;;;;;;;;;;;;;;16.96;100.00;100648.81;4949901;29;20294;-88
2022/08/01 03:39:09;;;;;;;;;;;;;;;16.97;100.00;100648.47;4955707;29;19926;-87
2022/08/01 03:41:40;;;;;;;;;;;;;;;16.95;100.00;100644.44;4939519;28;19927;-90
2022/08/01 03:44:15;;;;;;;;;;;;;;;16.96;100.00;100651.56;4939001;29;19930;-88
2022/08/01 03:46:52;;;;;;;;;;;;;;;16.92;100.00;100650.59;4951678;29;19926;-88
2022/08/01 03:49:29;;;;;;;;;;;;;;;16.97;100.00;100650.41;4930193;29;20368;-87
2022/08/01 03:51:57;;;;;;;;;;;;;;;16.96;100.00;100648.81;4945601;29;19926;-88
2022/08/01 03:54:32;;;;;;;;;;;;;;;16.98;100.00;100652.81;4953922;28;20261;-89
2022/08/01 03:57:00;;;;;;;;;;;;;;;17.02;100.00;100652.19;4931272;29;19929;-89
2022/08/01 03:59:36;;;;;;;;;;;;;;;16.99;100.00;100651.69;4938656;29;19923;-89
2022/08/01 04:02:10;;;;;;;;;;;;;;;16.99;100.00;100662.69;4936472;28;19926;-88
2022/08/01 04:04:43;;;;;;;;;;;;;;;16.96;100.00;100657.84;4933108;29;19929;-89
2022/08/01 04:07:23;;;;;;;;;;;;;;;16.97;100.00;100658.66;4950431;28;19926;-88
2022/08/01 04:09:56;;;;;;;;;;;;;;;16.98;100.00;100660.28;4937234;29;20345;-89
2022/08/01 04:12:29;;;;;;;;;;;;;;;16.98;100.00;100671.25;4955525;29;19926;-88
2022/08/01 04:15:02;;;;;;;;;;;;;;;16.99;100.00;100665.44;4955337;29;20291;-88
2022/08/01 04:17:31;;;;;;;;;;;;;;;16.95;100.00;100669.19;4948961;28;19923;-88
2022/08/01 04:20:05;;;;;;;;;;;;;;;16.95;100.00;100671.91;4936824;29;20026;-89
2022/08/01 04:22:35;;;;;;;;;;;;;;;17.03;100.00;100676.63;4950102;28;19934;-89
2022/08/01 04:25:05;;;;;;;;;;;;;;;17.01;100.00;100678.88;4947113;29;19922;-89
2022/08/01 04:27:40;;;;;;;;;;;;;;;17.02;100.00;100686.00;4947000;28;19929;-90
2022/08/01 04:30:09;;;;;;;;;;;;;;;16.96;100.00;100681.78;4954699;28;19926;-89
2022/08/01 04:32:45;;;;;;;;;;;;;;;16.96;100.00;100684.53;4952323;29;19933;-87
2022/08/01 04:35:19;;;;;;;;;;;;;;;16.97;100.00;100691.63;4937782;28;19922;-87
2022/08/01 04:37:53;;;;;;;;;;;;;;;16.94;100.00;100700.53;4951540;28;19926;-88
2022/08/01 04:40:22;;;;;;;;;;;;;;;16.99;100.00;100694.88;4954589;29;19926;-88
2022/08/01 04:42:55;;;;;;;;;;;;;;;16.97;100.00;100694.38;4934546;29;20275;-86
2022/08/01 04:45:24;;;;;;;;;;;;;;;16.95;100.00;100699.41;4948971;29;19922;-86
2022/08/01 04:47:53;;;;;;;;;;;;;;;16.97;100.00;100697.13;4947610;29;19926;-88
2022/08/01 04:50:26;;;;;;;;;;;;;;;16.99;100.00;100708.63;4945148;29;19933;-90
2022/08/01 04:52:54;;;;;;;;;;;;;;;17.00;100.00;100697.31;4951527;28;19929;-90
2022/08/01 04:55:27;;;;;;;;;;;;;;;17.05;100.00;100703.78;4951325;28;20291;-88
2022/08/01 04:57:55;;;;;;;;;;;;;;;16.97;100.00;100702.63;4944985;29;19930;-87
2022/08/01 05:00:23;;;;;;;;;;;;;;;17.07;100.00;100712.50;4950590;28;20312;-88
2022/08/01 05:02:51;;;;;;;;;;;;;;;17.05;100.00;100707.31;4934297;29;20402;-89
2022/08/01 05:05:26;;;;;;;;;;;;;;;17.06;100.00;100713.66;4935790;29;19927;-88
2022/08/01 05:07:55;;;;;;;;;;;;;;;17.04;100.00;100716.72;4942485;29;19922;-92
2022/08/01 05:10:28;;;;;;;;;;;;;;;17.03;100.00;100717.84;4954085;29;19968;-88
2022/08/01 05:13:01;;;;;;;;;;;;;;;17.03;100.00;100722.53;4941085;29;19930;-88
2022/08/01 05:15:36;;;;;;;;;;;;;;;17.02;100.00;100715.44;4940136;28;19926;-88
2022/08/01 05:18:04;;;;;;;;;;;;;;;17.00;100.00;100721.25;4943469;28;19929;-88
2022/08/01 05:20:39;;;;;;;;;;;;;;;17.03;100.00;100723.34;4938551;29;20364;-87
2022/08/01 05:23:12;;;;;;;;;;;;;;;16.95;100.00;100716.69;4954789;29;19941;-91
2022/08/01 05:25:45;;;;;;;;;;;;;;;16.94;100.00;100725.28;4945270;29;19930;-89
2022/08/01 05:28:13;;;;;;;;;;;;;;;16.96;100.00;100726.56;4955863;29;20263;-88
2022/08/01 05:30:46;;;;;;;;;;;;;;;17.03;100.00;100730.78;4939075;29;19923;-88
2022/08/01 05:33:20;;;;;;;;;;;;;;;16.99;100.00;100731.41;4956239;29;20397;-90
2022/08/01 05:35:49;;;;;;;;;;;;;;;16.99;100.00;100722.38;4951953;28;19946;-89
2022/08/01 05:38:22;;;;;;;;;;;;;;;17.05;100.00;100726.56;4953209;28;19922;-90
2022/08/01 05:40:50;;;;;;;;;;;;;;;17.08;100.00;100728.69;4939233;29;20326;-89
2022/08/01 05:43:23;;;;;;;;;;;;;;;17.10;100.00;100731.91;4938949;29;20364;-89
2022/08/01 05:45:51;;;;;;;;;;;;;;;17.13;100.00;100734.03;4950511;29;19922;-90
2022/08/01 05:48:24;;;;;;;;;;;;;;;17.20;100.00;100728.03;4936706;29;19930;-90
2022/08/01 05:50:58;;;;;;;;;;;;;;;17.23;100.00;100729.34;4949182;29;20287;-89
2022/08/01 05:53:34;;;;;;;;;;;;;;;17.20;100.00;100741.78;4947075;29;20375;-91
2022/08/01 05:56:02;;;;;;;;;;;;;;;17.22;100.00;100739.53;4939409;29;19922;-92
2022/08/01 05:58:30;;;;;;;;;;;;;;;17.20;100.00;100746.50;4949986;29;20307;-90
2022/08/01 06:00:58;;;;;;;;;;;;;;;17.16;100.00;100751.81;4936541;28;19922;-89
2022/08/01 06:03:33;;;;;;;;;;;;;;;17.11;100.00;100747.28;4969836;28;20402;-90
2022/08/01 06:06:02;;;;;;;;;;;;;;;17.10;100.00;100745.66;4954063;29;19933;-90
2022/08/01 06:08:35;;;;;;;;;;;;;;;17.09;100.00;100749.53;4938157;29;19927;-88
2022/08/01 06:11:03;;;;;;;;;;;;;;;17.07;100.00;100751.81;4954451;29;19922;-92
2022/08/01 06:13:31;;;;;;;;;;;;;;;16.96;100.00;100747.78;4942484;28;20306;-90
2022/08/01 06:15:59;;;;;;;;;;;;;;;16.93;100.00;100745.63;4959557;28;19922;-92
2022/08/01 06:18:27;;;;;;;;;;;;;;;16.96;100.00;100745.81;4946807;28;19922;-89
2022/08/01 06:21:00;;;;;;;;;;;;;;;17.06;100.00;100752.16;4957957;28;19930;-89
2022/08/01 06:23:34;;;;;;;;;;;;;;;17.13;100.00;100750.50;4935161;29;19923;-91
2022/08/01 06:26:07;;;;;;;;;;;;;;;17.08;100.00;100755.38;4942894;29;19923;-92
2022/08/01 06:28:35;;;;;;;;;;;;;;;17.21;100.00;100767.34;4938296;29;19929;-92
2022/08/01 06:31:09;;;;;;;;;;;;;;;17.20;100.00;100763.00;4951044;29;19922;-92
2022/08/01 06:33:42;;;;;;;;;;;;;;;17.32;100.00;100774.16;4922079;29;19930;-93
2022/08/01 06:36:15;;;;;;;;;;;;;;;17.38;100.00;100772.06;4929191;29;19923;-91
2022/08/01 06:38:49;;;;;;;;;;;;;;;17.40;100.00;100765.09;4939029;29;19930;-91
2022/08/01 06:41:23;;;;;;;;;;;;;;;17.48;100.00;100774.47;4938131;29;19930;-89
2022/08/01 06:43:51;;;;;;;;;;;;;;;17.54;100.00;100778.69;4936199;29;19969;-90
2022/08/01 06:46:19;;;;;;;;;;;;;;;17.65;100.00;100771.72;4923015;29;19946;-90
2022/08/01 06:48:47;;;;;;;;;;;;;;;17.77;100.00;100770.22;4920771;29;19937;-87
2022/08/01 06:51:20;;;;;;;;;;;;;;;17.69;100.00;100763.63;4944496;29;19930;-88
2022/08/01 06:53:54;;;;;;;;;;;;;;;17.65;100.00;100773.66;4935079;29;19930;-88
2022/08/01 06:56:27;;;;;;;;;;;;;;;17.72;100.00;100775.91;4919505;29;19926;-89
2022/08/01 06:59:00;;;;;;;;;;;;;;;17.79;100.00;100778.97;4915264;29;21090;-87
2022/08/01 07:01:33;;;;;;;;;;;;;;;17.63;100.00;100779.47;4924167;28;19931;-83
2022/08/01 07:04:06;;;;;;;;;;;;;;;17.59;100.00;100784.00;4919965;29;19937;-87
2022/08/01 07:06:39;;;;;;;;;;;;;;;17.58;100.00;100781.56;4947809;29;19929;-89
2022/08/01 07:09:13;;;;;;;;;;;;;;;17.40;100.00;100789.84;4923465;29;19930;-87
2022/08/01 07:11:41;;;;;;;;;;;;;;;17.29;100.00;100786.63;4923427;29;19945;-85
2022/08/01 07:14:09;;;;;;;;;;;;;;;17.30;100.00;100787.41;4927621;29;19930;-86
2022/08/01 07:16:42;;;;;;;;;;;;;;;17.37;100.00;100790.47;4926951;29;19930;-90
2022/08/01 07:19:15;;;;;;;;;;;;;;;17.44;100.00;100785.31;4927099;29;19922;-87
2022/08/01 07:21:48;;;;;;;;;;;;;;;17.45;100.00;100791.63;4940754;29;19930;-90
2022/08/01 07:24:22;;;;;;;;;;;;;;;17.38;100.00;100797.59;4926192;29;21274;-84
2022/08/01 07:26:50;;;;;;;;;;;;;;;17.46;100.00;100791.31;4938459;29;20696;-88
2022/08/01 07:29:24;;;;;;;;;;;;;;;17.44;100.00;100792.75;4921732;29;19937;-89
2022/08/01 07:31:52;;;;;;;;;;;;;;;17.48;100.00;100808.31;4921294;29;19937;-87
2022/08/01 07:34:25;;;;;;;;;;;;;;;17.48;100.00;100804.72;4934561;28;19953;-86
2022/08/01 07:36:58;;;;;;;;;;;;;;;17.57;100.00;100802.00;4917809;29;19930;-86
2022/08/01 07:39:32;;;;;;;;;;;;;;;17.55;100.00;100813.31;4938014;29;19930;-86
2022/08/01 07:42:01;;;;;;;;;;;;;;;17.47;100.00;100811.38;4940002;29;19930;-85
2022/08/01 07:44:34;;;;;;;;;;;;;;;17.56;100.00;100811.38;4920014;29;19930;-86
2022/08/01 07:47:07;;;;;;;;;;;;;;;17.65;100.00;100817.69;4939154;29;19930;-85
2022/08/01 07:49:40;;;;;;;;;;;;;;;17.63;100.00;100811.69;4918904;29;19931;-85
2022/08/01 07:52:08;;;;;;;;;;;;;;;17.72;100.00;100819.94;4934838;28;19937;-85
2022/08/01 07:54:37;;;;;;;;;;;;;;;17.78;100.00;100819.44;4934582;28;20327;-85
2022/08/01 07:57:10;;;;;;;;;;;;;;;17.80;100.00;100821.88;4938302;29;19937;-88
2022/08/01 07:59:43;;;;;;;;;;;;;;;17.95;100.00;100837.13;4921447;28;20785;-88
2022/08/01 08:02:11;;;;;;;;;;;;;;;17.76;100.00;100832.75;4925488;29;19922;-87
2022/08/01 08:04:44;;;;;;;;;;;;;;;17.76;100.00;100832.75;4924826;29;19926;-86
2022/08/01 08:07:17;;;;;;;;;;;;;;;17.76;100.00;100835.50;4922693;29;19930;-86
2022/08/01 08:09:51;;;;;;;;;;;;;;;17.75;100.00;100842.13;4942146;29;20669;-87
2022/08/01 08:12:19;;;;;;;;;;;;;;;17.81;100.00;100845.53;4934968;28;19930;-86
2022/08/01 08:14:52;;;;;;;;;;;;;;;17.79;100.00;100850.56;4938049;29;19930;-85
2022/08/01 08:17:25;;;;;;;;;;;;;;;17.86;100.00;100848.13;4945805;28;20383;-85
2022/08/01 08:19:58;;;;;;;;;;;;;;;17.95;100.00;100862.72;4918717;29;20387;-87
2022/08/01 08:22:31;;;;;;;;;;;;;;;18.07;100.00;100858.50;4940066;29;19937;-87
2022/08/01 08:25:06;;;;;;;;;;;;;;;18.11;100.00;100857.50;4939520;29;20875;-89
2022/08/01 08:27:34;;;;;;;;;;;;;;;18.11;100.00;100856.69;4922193;29;19949;-85
2022/08/01 08:30:08;;;;;;;;;;;;;;;18.14;100.00;100861.53;4933913;29;21201;-84
2022/08/01 08:32:36;;;;;;;;;;;;;;;18.29;100.00;100855.50;4917938;29;19930;-88
2022/08/01 08:35:05;;;;;;;;;;;;;;;18.26;100.00;100860.88;4937840;28;20630;-87
2022/08/01 08:37:33;;;;;;;;;;;;;;;18.32;100.00;100856.81;4923367;29;19934;-86
2022/08/01 08:40:01;;;;;;;;;;;;;;;18.42;100.00;100863.91;4920314;29;19930;-88
2022/08/01 08:42:31;;;;;;;;;;;;;;;18.45;100.00;100858.56;4938593;29;19930;-90
2022/08/01 08:44:59;;;;;;;;;;;;;;;18.39;100.00;100854.34;4921562;29;19930;-86
2022/08/01 08:47:29;;;;;;;;;;;;;;;18.56;100.00;100863.69;4923690;29;19931;-88
2022/08/01 08:49:58;;;;;;;;;;;;;;;18.52;100.00;100858.84;4943750;29;20380;-94
2022/08/01 08:52:27;;;;;;;;;;;;;;;18.47;100.00;100867.28;4923958;29;19942;-90
2022/08/01 08:54:56;;;;;;;;;;;;;;;18.48;100.00;100870.88;4937392;28;19931;-86
2022/08/01 08:57:29;;;;;;;;;;;;;;;18.52;100.00;100871.84;4919110;28;19937;-87
2022/08/01 08:59:58;;;;;;;;;;;;;;;18.65;100.00;100875.50;4924333;29;19931;-89
2022/08/01 09:02:26;;;;;;;;;;;;;;;18.75;100.00;100877.88;4925543;29;19930;-90
2022/08/01 09:05:00;;;;;;;;;;;;;;;18.63;100.00;100875.84;4942116;29;19943;-88
2022/08/01 09:07:28;;;;;;;;;;;;;;;18.49;100.00;100881.56;4920769;29;19930;-88
2022/08/01 09:10:01;;;;;;;;;;;;;;;18.47;100.00;100883.81;4936170;29;20031;-87
2022/08/01 09:12:33;;;;;;;;;;;;;;;18.50;100.00;100893.38;4919115;29;19930;-87
2022/08/01 09:15:03;;;;;;;;;;;;;;;18.65;100.00;100892.06;4923422;29;19938;-88
2022/08/01 09:17:39;;;;;;;;;;;;;;;19.00;100.00;100889.16;4938001;29;19930;-88
2022/08/01 09:20:08;;;;;;;;;;;;;;;19.03;100.00;100894.84;4937871;29;19938;-87
2022/08/01 09:22:37;;;;;;;;;;;;;;;18.69;100.00;100895.75;4942047;28;19930;-86
2022/08/01 09:25:11;;;;;;;;;;;;;;;18.69;100.00;100915.88;4942470;29;19926;-88
2022/08/01 09:27:39;;;;;;;;;;;;;;;18.90;100.00;100903.34;4936481;29;19930;-86
2022/08/01 09:30:10;;;;;;;;;;;;;;;18.58;100.00;100911.84;4937394;28;19923;-87
2022/08/01 09:32:53;;;;;;;;;;;;;;;18.51;100.00;100925.34;4923809;29;19929;-88
2022/08/01 09:35:27;;;;;;;;;;;;;;;18.32;100.00;100929.25;4923290;29;19937;-86
2022/08/01 09:38:11;;;;;;;;;;;;;;;18.57;100.00;100926.75;4922115;29;19937;-89
2022/08/01 09:40:45;;;;;;;;;;;;;;;18.72;100.00;100928.19;4942194;29;20383;-87
2022/08/01 09:43:18;;;;;;;;;;;;;;;18.75;100.00;100935.78;4940424;29;19933;-87
2022/08/01 09:45:48;;;;;;;;;;;;;;;18.55;100.00;100937.31;4925184;29;19930;-88
2022/08/01 09:48:16;;;;;;;;;;;;;;;18.46;100.00;100945.63;4938856;29;19954;-90
2022/08/01 09:50:45;;;;;;;;;;;;;;;18.44;100.00;100956.13;4939793;29;19930;-88
2022/08/01 09:53:14;;;;;;;;;;;;;;;18.33;100.00;100952.91;4944645;29;19930;-88
2022/08/01 09:55:47;;;;;;;;;;;;;;;18.21;100.00;100957.47;4943748;28;19956;-87
2022/08/01 09:58:15;;;;;;;;;;;;;;;18.47;100.00;100958.22;4939302;29;20446;-89
2022/08/01 10:01:00;;;;;;;;;;;;;;;18.64;100.00;100965.69;4935974;29;20520;-87
2022/08/01 10:03:29;;;;;;;;;;;;;;;18.62;100.00;100967.13;4938247;29;19937;-91
2022/08/01 10:05:58;;;;;;;;;;;;;;;18.33;100.00;100974.16;4919173;29;19937;-86
2022/08/01 10:08:26;;;;;;;;;;;;;;;18.52;100.00;100971.06;4917702;29;19930;-89
2022/08/01 10:11:07;;;;;;;;;;;;;;;18.76;100.00;100967.75;4917692;29;19937;-89
2022/08/01 10:13:35;;;;;;;;;;;;;;;18.84;100.00;100968.88;4919518;29;19930;-88
2022/08/01 10:16:10;;;;;;;;;;;;;;;18.73;100.00;100970.38;4922330;28;19930;-89
2022/08/01 10:18:45;;;;;;;;;;;;;;;18.86;100.00;100981.19;4940119;28;19922;-88
2022/08/01 10:21:18;;;;;;;;;;;;;;;18.81;100.00;100978.59;4920224;29;19956;-88
2022/08/01 10:23:52;;;;;;;;;;;;;;;18.60;100.00;100975.75;4944345;29;19930;-88
2022/08/01 10:26:20;;;;;;;;;;;;;;;18.55;100.00;100975.06;4925887;29;19930;-89
2022/08/01 10:28:53;;;;;;;;;;;;;;;18.69;100.00;100973.75;4935644;28;19938;-88
2022/08/01 10:31:30;;;;;;;;;;;;;;;18.85;100.00;100982.31;4928611;28;19937;-89
2022/08/01 10:33:58;;;;;;;;;;;;;;;18.75;100.00;100974.38;4942875;28;20291;-88
2022/08/01 10:36:32;;;;;;;;;;;;;;;18.89;100.00;100989.97;4921329;29;19923;-87
2022/08/01 10:39:05;;;;;;;;;;;;;;;18.97;100.00;100980.84;4923396;29;19927;-88
2022/08/01 10:41:39;;;;;;;;;;;;;;;19.13;100.00;100983.88;4937403;28;19931;-88
2022/08/01 10:44:12;;;;;;;;;;;;;;;19.42;100.00;100980.34;4941751;29;19930;-87
2022/08/01 10:46:49;;;;;;;;;;;;;;;19.78;100.00;100978.97;4934719;29;21338;-89
2022/08/01 10:49:24;;;;;;;;;;;;;;;19.84;100.00;100983.19;4939084;28;19930;-90
2022/08/01 10:51:57;;;;;;;;;;;;;;;19.72;100.00;100983.09;4937227;29;19938;-88
2022/08/01 10:54:38;;;;;;;;;;;;;;;19.55;100.00;100986.75;4935903;29;19934;-89
2022/08/01 10:57:06;;;;;;;;;;;;;;;19.44;100.00;100983.56;4938151;29;19922;-89
2022/08/01 10:59:48;;;;;;;;;;;;;;;19.59;100.00;100987.72;4933197;29;19937;-86
2022/08/01 11:02:30;;;;;;;;;;;;;;;19.87;100.00;100987.22;4935613;28;19931;-86
2022/08/01 11:05:04;;;;;;;;;;;;;;;20.13;100.00;100989.00;4937329;29;19930;-90
2022/08/01 11:07:45;;;;;;;;;;;;;;;20.43;100.00;100973.13;4934065;29;19930;-90
2022/08/01 11:10:22;;;;;;;;;;;;;;;20.00;100.00;100979.84;4918662;29;19930;-89
2022/08/01 11:12:55;;;;;;;;;;;;;;;19.94;100.00;100983.94;4936701;29;19941;-88
2022/08/01 11:15:28;;;;;;;;;;;;;;;20.12;100.00;100976.31;4922389;29;19945;-88
2022/08/01 11:18:04;;;;;;;;;;;;;;;20.51;100.00;100980.53;4921275;29;21207;-86
2022/08/01 11:20:37;;;;;;;;;;;;;;;20.79;100.00;100976.38;4934937;28;19930;-87
2022/08/01 11:23:19;;;;;;;;;;;;;;;20.59;100.00;100986.31;4935243;28;19930;-88
2022/08/01 11:26:07;;;;;;;;;;;;;;;20.74;100.00;100985.69;4935718;29;19930;-87
2022/08/01 11:28:41;;;;;;;;;;;;;;;20.68;100.00;100979.56;4940762;29;19930;-85
2022/08/01 11:31:30;;;;;;;;;;;;;;;20.97;100.00;100988.84;4936864;29;19945;-88
2022/08/01 11:34:00;;;;;;;;;;;;;;;20.82;100.00;100981.22;4910030;28;20562;-89
2022/08/01 11:36:33;;;;;;;;;;;;;;;21.10;100.00;100977.81;4918360;29;19930;-90
2022/08/01 11:39:16;;;;;;;;;;;;;;;21.13;100.00;100982.63;4936709;29;19931;-90
2022/08/01 11:41:45;;;;;;;;;;;;;;;21.51;100.00;100982.31;4917477;29;21389;-89
2022/08/01 11:44:15;;;;;;;;;;;;;;;21.26;100.00;100981.50;4918484;29;19930;-90
2022/08/01 11:46:46;;;;;;;;;;;;;;;21.43;100.00;100983.22;4933028;28;20300;-89
2022/08/01 11:49:28;;;;;;;;;;;;;;;21.53;100.00;100987.50;4919250;29;19930;-88
2022/08/01 11:52:04;;;;;;;;;;;;;;;21.43;100.00;100983.22;4919678;29;21777;-87
2022/08/01 11:54:39;;;;;;;;;;;;;;;21.45;100.00;100982.88;4936941;28;20390;-88
2022/08/01 11:57:12;;;;;;;;;;;;;;;21.61;100.00;100983.03;4937300;29;19930;-87
2022/08/01 11:59:45;;;;;;;;;;;;;;;21.54;100.00;100980.84;4924887;29;19930;-88
2022/08/01 12:02:20;;;;;;;;;;;;;;;21.34;100.00;100982.56;4938642;29;19930;-89
2022/08/01 12:04:51;;;;;;;;;;;;;;;21.46;100.00;100977.03;4938892;29;19926;-90
2022/08/01 12:07:25;;;;;;;;;;;;;;;21.51;100.00;100981.50;4937812;28;19926;-88
2022/08/01 12:10:00;;;;;;;;;;;;;;;21.66;100.00;100988.34;4942853;29;19922;-88
2022/08/01 12:12:34;;;;;;;;;;;;;;;21.76;100.00;100987.84;4936783;28;19930;-86
2022/08/01 12:15:04;;;;;;;;;;;;;;;21.65;100.00;100989.47;4936068;28;20542;-86
2022/08/01 12:17:32;;;;;;;;;;;;;;;21.77;100.00;100988.66;4939598;29;21378;-87
2022/08/01 12:20:02;;;;;;;;;;;;;;;21.80;100.00;100983.22;4937217;29;19930;-87
2022/08/01 12:22:30;;;;;;;;;;;;;;;21.76;100.00;100990.63;4935742;28;20375;-86
2022/08/01 12:25:06;;;;;;;;;;;;;;;21.90;100.00;100988.28;4923065;29;20426;-85
2022/08/01 12:27:34;;;;;;;;;;;;;;;22.24;100.00;100994.41;4935633;29;19931;-87
2022/08/01 12:30:08;;;;;;;;;;;;;;;22.54;100.00;100980.22;4935347;28;19930;-85
2022/08/01 12:32:43;;;;;;;;;;;;;;;22.57;100.00;100989.81;4909787;28;20004;-87
2022/08/01 12:35:17;;;;;;;;;;;;;;;22.58;100.00;100985.88;4933071;28;19937;-84
2022/08/01 12:37:51;;;;;;;;;;;;;;;22.43;100.00;100995.78;4932451;28;19931;-83
2022/08/01 12:40:25;;;;;;;;;;;;;;;22.20;100.00;100993.50;4921730;29;19937;-85
2022/08/01 12:42:59;;;;;;;;;;;;;;;22.02;100.00;100989.41;4916639;29;19938;-84
2022/08/01 12:45:33;;;;;;;;;;;;;;;22.39;100.00;100994.88;4938411;28;19930;-84
2022/08/01 12:48:02;;;;;;;;;;;;;;;22.21;100.00;100994.31;4941651;28;19930;-83
2022/08/01 12:50:44;;;;;;;;;;;;;;;21.94;100.00;100996.69;4945017;29;19926;-84
2022/08/01 12:53:25;;;;;;;;;;;;;;;22.13;100.00;100989.72;4941766;28;19945;-83